Main page
METAR-TAF:

METAR-TAF

Airports :

Cardiff Airport

Cardiff, Wales

latitude: 51-24N, longitude: 003-21W, elevation: 67 m

Current weather observation

The report was made 37 minutes ago, at 22:50 UTC
Wind 9 kt from the Northwest
Temperature 15°C
Humidity 94%
Pressure 1009 hPa
Visibility 10 km or more

METAR: EGFF 302250Z AUTO 31009KT 9999 FEW036/// SCT042/// //////CB 15/14 Q1009

Time: 00:27 (23:27 UTC)

Forecast

The report was made 6 hours and 30 minutes ago, at 16:57 UTC
Forecast valid from 30 at 18 UTC to 31 at 18 UTC
Wind 13 kt from the West
Visibility 10 km or more
Scattered clouds at a height of 2500 ft
Probability 40% :
Temporary
from 30 at 18 UTC to 31 at 18 UTC
Visibility: 5000 m
Broken clouds at a height of 1200 ft
Broken clouds at a height of 2500 ft, Towering cumulus.
rain showers

TAF: EGFF 301657Z 3018/3118 28013KT 9999 SCT025 PROB40 TEMPO 3018/3118 5000 SHRA BKN012 BKN025TCU

Weather observations and forecasts of more than 4000 airports (METAR and TAF reports).

The available stations are represented by yellow and red dots on the map.

Hover mouse over dot to see the name of the station.

Then click to see weather observations and forecasts.

To change the map : click on the green buttons with a black cross to zoom in, on the green button with a dash to zoom out, or on the green arrows for adjacent maps.


METAR-TAF: